sensor_id;sensor_type;location;lat;lon;timestamp;pressure;altitude;pressure_sealevel;temperature;humidity
61786;BME280;47692;53.714;11.372;2024-03-25T00:01:51;99293.78;;;4.77;100.00
61786;BME280;47692;53.714;11.372;2024-03-25T00:04:16;99293.00;;;4.75;100.00
61786;BME280;47692;53.714;11.372;2024-03-25T00:06:41;99292.09;;;4.76;100.00
61786;BME280;47692;53.714;11.372;2024-03-25T00:09:07;99297.34;;;4.73;100.00
61786;BME280;47692;53.714;11.372;2024-03-25T00:11:38;99297.34;;;4.73;100.00
61786;BME280;47692;53.714;11.372;2024-03-25T00:14:04;99298.16;;;4.75;100.00
61786;BME280;47692;53.714;11.372;2024-03-25T00:16:29;99299.91;;;4.73;100.00
61786;BME280;47692;53.714;11.372;2024-03-25T00:18:54;99294.72;;;4.75;100.00
61786;BME280;47692;53.714;11.372;2024-03-25T00:21:20;99305.84;;;4.78;100.00
61786;BME280;47692;53.714;11.372;2024-03-25T00:23:45;99306.78;;;4.74;100.00
61786;BME280;47692;53.714;11.372;2024-03-25T00:26:10;99305.88;;;4.77;100.00
61786;BME280;47692;53.714;11.372;2024-03-25T00:28:36;99312.84;;;4.73;100.00
61786;BME280;47692;53.714;11.372;2024-03-25T00:31:02;99311.88;;;4.77;100.00
61786;BME280;47692;53.714;11.372;2024-03-25T00:33:27;99318.00;;;4.73;100.00
61786;BME280;47692;53.714;11.372;2024-03-25T00:35:52;99318.84;;;4.75;100.00
61786;BME280;47692;53.714;11.372;2024-03-25T00:38:18;99324.06;;;4.74;100.00
61786;BME280;47692;53.714;11.372;2024-03-25T00:40:44;99324.16;;;4.69;100.00
61786;BME280;47692;53.714;11.372;2024-03-25T00:43:09;99335.41;;;4.65;100.00
61786;BME280;47692;53.714;11.372;2024-03-25T00:45:35;99335.50;;;4.62;100.00
61786;BME280;47692;53.714;11.372;2024-03-25T00:48:00;99334.56;;;4.64;100.00
61786;BME280;47692;53.714;11.372;2024-03-25T00:50:26;99326.84;;;4.63;100.00
61786;BME280;47692;53.714;11.372;2024-03-25T00:52:52;99341.50;;;4.62;100.00
61786;BME280;47692;53.714;11.372;2024-03-25T00:55:17;99337.19;;;4.63;100.00
61786;BME280;47692;53.714;11.372;2024-03-25T00:57:42;99338.94;;;4.61;100.00
61786;BME280;47692;53.714;11.372;2024-03-25T01:00:09;99339.03;;;4.58;100.00
61786;BME280;47692;53.714;11.372;2024-03-25T01:02:34;99338.25;;;4.52;100.00
61786;BME280;47692;53.714;11.372;2024-03-25T01:05:00;99339.03;;;4.58;100.00
61786;BME280;47692;53.714;11.372;2024-03-25T01:07:25;99333.84;;;4.58;100.00
61786;BME280;47692;53.714;11.372;2024-03-25T01:09:51;99339.06;;;4.55;100.00
61786;BME280;47692;53.714;11.372;2024-03-25T01:12:16;99343.34;;;4.57;100.00
61786;BME280;47692;53.714;11.372;2024-03-25T01:14:41;99345.88;;;4.59;100.00
61786;BME280;47692;53.714;11.372;2024-03-25T01:17:07;99344.06;;;4.64;100.00
61786;BME280;47692;53.714;11.372;2024-03-25T01:19:32;99357.06;;;4.61;100.00
61786;BME280;47692;53.714;11.372;2024-03-25T01:21:57;99361.25;;;4.65;100.00
61786;BME280;47692;53.714;11.372;2024-03-25T01:24:22;99356.22;;;4.60;100.00
61786;BME280;47692;53.714;11.372;2024-03-25T01:26:48;99363.28;;;4.50;100.00
61786;BME280;47692;53.714;11.372;2024-03-25T01:29:13;99364.28;;;4.43;100.00
61786;BME280;47692;53.714;11.372;2024-03-25T01:31:39;99355.69;;;4.43;100.00
61786;BME280;47692;53.714;11.372;2024-03-25T01:34:04;99359.94;;;4.45;100.00
61786;BME280;47692;53.714;11.372;2024-03-25T01:36:29;99371.22;;;4.41;100.00
61786;BME280;47692;53.714;11.372;2024-03-25T01:38:55;99366.91;;;4.42;100.00
61786;BME280;47692;53.714;11.372;2024-03-25T01:41:21;99368.63;;;4.41;100.00
61786;BME280;47692;53.714;11.372;2024-03-25T01:43:50;99369.44;;;4.43;100.00
61786;BME280;47692;53.714;11.372;2024-03-25T01:46:20;99375.47;;;4.45;100.00
61786;BME280;47692;53.714;11.372;2024-03-25T01:48:46;99373.75;;;4.44;100.00
61786;BME280;47692;53.714;11.372;2024-03-25T01:51:14;99377.03;;;4.52;100.00
61786;BME280;47692;53.714;11.372;2024-03-25T01:53:42;99378.69;;;4.57;100.00
61786;BME280;47692;53.714;11.372;2024-03-25T01:56:08;99385.59;;;4.55;100.00
61786;BME280;47692;53.714;11.372;2024-03-25T01:58:34;99382.97;;;4.58;100.00
61786;BME280;47692;53.714;11.372;2024-03-25T02:00:59;99380.38;;;4.58;100.00
61786;BME280;47692;53.714;11.372;2024-03-25T02:03:27;99397.56;;;4.59;100.00
61786;BME280;47692;53.714;11.372;2024-03-25T02:05:57;99389.75;;;4.63;100.00
61786;BME280;47692;53.714;11.372;2024-03-25T02:08:23;99399.34;;;4.57;100.00
61786;BME280;47692;53.714;11.372;2024-03-25T02:10:51;99398.59;;;4.51;100.00
61786;BME280;47692;53.714;11.372;2024-03-25T02:13:17;99406.34;;;4.51;100.00
61786;BME280;47692;53.714;11.372;2024-03-25T02:15:42;99399.34;;;4.57;100.00
61786;BME280;47692;53.714;11.372;2024-03-25T02:18:08;99409.94;;;4.44;100.00
61786;BME280;47692;53.714;11.372;2024-03-25T02:20:33;99416.06;;;4.39;100.00
61786;BME280;47692;53.714;11.372;2024-03-25T02:22:59;99417.00;;;4.34;100.00
61786;BME280;47692;53.714;11.372;2024-03-25T02:25:24;99421.28;;;4.35;100.00
61786;BME280;47692;53.714;11.372;2024-03-25T02:27:50;99423.09;;;4.30;100.00
61786;BME280;47692;53.714;11.372;2024-03-25T02:30:15;99427.38;;;4.33;100.00
61786;BME280;47692;53.714;11.372;2024-03-25T02:32:41;99427.25;;;4.39;100.00
61786;BME280;47692;53.714;11.372;2024-03-25T02:35:12;99430.69;;;4.40;100.00
61786;BME280;47692;53.714;11.372;2024-03-25T02:37:38;99433.22;;;4.43;100.00
61786;BME280;47692;53.714;11.372;2024-03-25T02:40:05;99442.81;;;4.36;100.00
61786;BME280;47692;53.714;11.372;2024-03-25T02:42:32;99439.34;;;4.37;100.00
61786;BME280;47692;53.714;11.372;2024-03-25T02:44:58;99441.09;;;4.36;100.00
61786;BME280;47692;53.714;11.372;2024-03-25T02:47:24;99445.31;;;4.41;100.00
61786;BME280;47692;53.714;11.372;2024-03-25T02:49:50;99453.91;;;4.41;100.00
61786;BME280;47692;53.714;11.372;2024-03-25T02:52:15;99458.28;;;4.39;100.00
61786;BME280;47692;53.714;11.372;2024-03-25T02:54:41;99459.19;;;4.36;100.00
61786;BME280;47692;53.714;11.372;2024-03-25T02:57:06;99463.44;;;4.39;100.00
61786;BME280;47692;53.714;11.372;2024-03-25T02:59:31;99459.22;;;4.33;100.00
61786;BME280;47692;53.714;11.372;2024-03-25T03:01:57;99465.19;;;4.37;100.00
61786;BME280;47692;53.714;11.372;2024-03-25T03:04:22;99466.94;;;4.35;100.00
61786;BME280;47692;53.714;11.372;2024-03-25T03:06:47;99468.75;;;4.30;100.00
61786;BME280;47692;53.714;11.372;2024-03-25T03:09:13;99479.06;;;4.33;100.00
61786;BME280;47692;53.714;11.372;2024-03-25T03:11:38;99476.50;;;4.30;100.00
61786;BME280;47692;53.714;11.372;2024-03-25T03:14:03;99487.72;;;4.30;100.00
61786;BME280;47692;53.714;11.372;2024-03-25T03:16:29;99480.75;;;4.34;100.00
61786;BME280;47692;53.714;11.372;2024-03-25T03:18:54;99491.09;;;4.34;100.00
61786;BME280;47692;53.714;11.372;2024-03-25T03:21:20;99495.47;;;4.30;100.00
61786;BME280;47692;53.714;11.372;2024-03-25T03:23:45;99498.97;;;4.25;100.00
61786;BME280;47692;53.714;11.372;2024-03-25T03:26:10;99499.00;;;4.23;100.00
61786;BME280;47692;53.714;11.372;2024-03-25T03:28:37;99504.22;;;4.22;100.00
61786;BME280;47692;53.714;11.372;2024-03-25T03:31:02;99512.88;;;4.19;100.00
61786;BME280;47692;53.714;11.372;2024-03-25T03:33:27;99516.38;;;4.13;100.00
61786;BME280;47692;53.714;11.372;2024-03-25T03:35:52;99520.81;;;4.05;100.00
61786;BME280;47692;53.714;11.372;2024-03-25T03:38:18;99520.97;;;3.96;100.00
61786;BME280;47692;53.714;11.372;2024-03-25T03:40:58;99529.72;;;3.85;100.00
61786;BME280;47692;53.714;11.372;2024-03-25T03:43:24;99516.97;;;3.75;100.00
61786;BME280;47692;53.714;11.372;2024-03-25T03:45:49;99522.25;;;3.67;100.00
61786;BME280;47692;53.714;11.372;2024-03-25T03:48:14;99523.09;;;3.66;100.00
61786;BME280;47692;53.714;11.372;2024-03-25T03:50:39;99526.50;;;3.68;100.00
61786;BME280;47692;53.714;11.372;2024-03-25T03:53:05;99529.97;;;3.67;100.00
61786;BME280;47692;53.714;11.372;2024-03-25T03:55:30;99531.72;;;3.65;100.00
61786;BME280;47692;53.714;11.372;2024-03-25T03:57:55;99533.38;;;3.69;100.00
61786;BME280;47692;53.714;11.372;2024-03-25T04:00:20;99538.59;;;3.66;100.00
61786;BME280;47692;53.714;11.372;2024-03-25T04:02:46;99538.59;;;3.66;100.00
61786;BME280;47692;53.714;11.372;2024-03-25T04:05:11;99549.75;;;3.69;100.00
61786;BME280;47692;53.714;11.372;2024-03-25T04:07:36;99551.44;;;3.69;100.00
61786;BME280;47692;53.714;11.372;2024-03-25T04:10:02;99560.03;;;3.71;100.00
61786;BME280;47692;53.714;11.372;2024-03-25T04:12:28;99566.09;;;3.68;100.00
61786;BME280;47692;53.714;11.372;2024-03-25T04:14:54;99566.03;;;3.73;100.00
61786;BME280;47692;53.714;11.372;2024-03-25T04:17:22;99567.72;;;3.74;100.00
61786;BME280;47692;53.714;11.372;2024-03-25T04:19:50;99569.41;;;3.78;100.00
61786;BME280;47692;53.714;11.372;2024-03-25T04:22:16;99577.97;;;3.80;100.00
61786;BME280;47692;53.714;11.372;2024-03-25T04:24:43;99580.50;;;3.85;100.00
61786;BME280;47692;53.714;11.372;2024-03-25T04:27:08;99585.63;;;3.90;100.00
61786;BME280;47692;53.714;11.372;2024-03-25T04:29:33;99591.63;;;3.92;100.00
61786;BME280;47692;53.714;11.372;2024-03-25T04:31:59;99587.28;;;3.92;100.00
61786;BME280;47692;53.714;11.372;2024-03-25T04:34:24;99588.09;;;3.96;100.00
61786;BME280;47692;53.714;11.372;2024-03-25T04:36:49;99595.00;;;3.97;100.00
61786;BME280;47692;53.714;11.372;2024-03-25T04:39:14;99600.09;;;4.00;100.00
61786;BME280;47692;53.714;11.372;2024-03-25T04:41:40;99610.41;;;4.03;100.00
61786;BME280;47692;53.714;11.372;2024-03-25T04:44:06;99608.63;;;4.05;100.00
61786;BME280;47692;53.714;11.372;2024-03-25T04:46:31;99612.06;;;4.07;100.00
61786;BME280;47692;53.714;11.372;2024-03-25T04:48:56;99617.22;;;4.07;100.00
61786;BME280;47692;53.714;11.372;2024-03-25T04:51:22;99617.25;;;4.04;100.00
61786;BME280;47692;53.714;11.372;2024-03-25T04:53:47;99625.81;;;4.09;100.00
61786;BME280;47692;53.714;11.372;2024-03-25T04:56:12;99633.53;;;4.11;100.00
61786;BME280;47692;53.714;11.372;2024-03-25T04:58:38;99629.28;;;4.08;100.00
61786;BME280;47692;53.714;11.372;2024-03-25T05:01:04;99640.41;;;4.12;100.00
61786;BME280;47692;53.714;11.372;2024-03-25T05:03:32;99641.22;;;4.15;100.00
61786;BME280;47692;53.714;11.372;2024-03-25T05:05:57;99646.41;;;4.15;100.00
61786;BME280;47692;53.714;11.372;2024-03-25T05:08:23;99656.72;;;4.15;100.00
61786;BME280;47692;53.714;11.372;2024-03-25T05:10:49;99651.66;;;4.09;100.00
61786;BME280;47692;53.714;11.372;2024-03-25T05:13:14;99654.22;;;4.08;100.00
61786;BME280;47692;53.714;11.372;2024-03-25T05:15:40;99657.69;;;4.08;100.00
61786;BME280;47692;53.714;11.372;2024-03-25T05:18:05;99658.53;;;4.09;100.00
61786;BME280;47692;53.714;11.372;2024-03-25T05:20:31;99668.00;;;4.08;100.00
61786;BME280;47692;53.714;11.372;2024-03-25T05:22:56;99672.31;;;4.09;100.00
61786;BME280;47692;53.714;11.372;2024-03-25T05:25:21;99668.88;;;4.07;100.00
61786;BME280;47692;53.714;11.372;2024-03-25T05:27:53;99670.63;;;4.05;100.00
61786;BME280;47692;53.714;11.372;2024-03-25T05:30:19;99675.78;;;4.05;100.00
61786;BME280;47692;53.714;11.372;2024-03-25T05:32:44;99674.06;;;4.07;100.00
61786;BME280;47692;53.714;11.372;2024-03-25T05:35:09;99678.38;;;4.07;100.00
61786;BME280;47692;53.714;11.372;2024-03-25T05:37:35;99687.75;;;4.12;100.00
61786;BME280;47692;53.714;11.372;2024-03-25T05:40:01;99692.00;;;4.16;100.00
61786;BME280;47692;53.714;11.372;2024-03-25T05:42:26;99694.59;;;4.16;100.00
61786;BME280;47692;53.714;11.372;2024-03-25T05:44:51;99696.34;;;4.14;100.00
61786;BME280;47692;53.714;11.372;2024-03-25T05:47:17;99698.00;;;4.22;100.00
61786;BME280;47692;53.714;11.372;2024-03-25T05:49:42;99703.19;;;4.18;100.00
61786;BME280;47692;53.714;11.372;2024-03-25T05:52:07;99710.94;;;4.18;100.00
61786;BME280;47692;53.714;11.372;2024-03-25T05:54:33;99713.50;;;4.18;100.00
61786;BME280;47692;53.714;11.372;2024-03-25T05:56:58;99720.41;;;4.16;100.00
61786;BME280;47692;53.714;11.372;2024-03-25T05:59:23;99707.50;;;4.16;100.00
61786;BME280;47692;53.714;11.372;2024-03-25T06:01:48;99723.81;;;4.22;100.00
61786;BME280;47692;53.714;11.372;2024-03-25T06:04:14;99723.78;;;4.25;100.00
61786;BME280;47692;53.714;11.372;2024-03-25T06:06:39;99723.81;;;4.23;100.00
61786;BME280;47692;53.714;11.372;2024-03-25T06:09:04;99718.66;;;4.22;100.00
61786;BME280;47692;53.714;11.372;2024-03-25T06:11:30;99735.81;;;4.26;100.00
61786;BME280;47692;53.714;11.372;2024-03-25T06:13:56;99739.25;;;4.28;100.00
61786;BME280;47692;53.714;11.372;2024-03-25T06:16:21;99741.84;;;4.28;100.00
61786;BME280;47692;53.714;11.372;2024-03-25T06:18:46;99734.06;;;4.29;100.00
61786;BME280;47692;53.714;11.372;2024-03-25T06:21:12;99736.63;;;4.31;100.00
61786;BME280;47692;53.714;11.372;2024-03-25T06:23:38;99734.91;;;4.30;100.00
61786;BME280;47692;53.714;11.372;2024-03-25T06:26:03;99742.66;;;4.30;100.00
61786;BME280;47692;53.714;11.372;2024-03-25T06:28:29;99742.56;;;4.36;100.00
61786;BME280;47692;53.714;11.372;2024-03-25T06:30:54;99751.19;;;4.35;100.00
61786;BME280;47692;53.714;11.372;2024-03-25T06:33:37;99751.25;;;4.32;100.00
61786;BME280;47692;53.714;11.372;2024-03-25T06:36:22;99751.25;;;4.32;100.00
61786;BME280;47692;53.714;11.372;2024-03-25T06:38:47;99757.31;;;4.29;100.00
61786;BME280;47692;53.714;11.372;2024-03-25T06:41:13;99754.72;;;4.29;100.00
61786;BME280;47692;53.714;11.372;2024-03-25T06:43:39;99761.53;;;4.35;100.00
61786;BME280;47692;53.714;11.372;2024-03-25T06:46:05;99769.28;;;4.36;100.00
61786;BME280;47692;53.714;11.372;2024-03-25T06:48:31;99770.97;;;4.37;100.00
61786;BME280;47692;53.714;11.372;2024-03-25T06:50:57;99778.72;;;4.39;100.00
61786;BME280;47692;53.714;11.372;2024-03-25T06:53:23;99775.22;;;4.46;100.00
61786;BME280;47692;53.714;11.372;2024-03-25T06:55:53;99776.88;;;4.47;100.00
61786;BME280;47692;53.714;11.372;2024-03-25T06:58:19;99782.03;;;4.50;100.00
61786;BME280;47692;53.714;11.372;2024-03-25T07:00:45;99778.66;;;4.45;100.00
61786;BME280;47692;53.714;11.372;2024-03-25T07:03:10;99776.88;;;4.50;100.00
61786;BME280;47692;53.714;11.372;2024-03-25T07:05:35;99785.47;;;4.51;100.00
61786;BME280;47692;53.714;11.372;2024-03-25T07:08:01;99788.94;;;4.48;100.00
61786;BME280;47692;53.714;11.372;2024-03-25T07:10:27;99778.59;;;4.48;100.00
61786;BME280;47692;53.714;11.372;2024-03-25T07:12:52;99790.66;;;4.49;100.00
61786;BME280;47692;53.714;11.372;2024-03-25T07:15:18;99790.66;;;4.49;100.00
61786;BME280;47692;53.714;11.372;2024-03-25T07:17:43;99793.25;;;4.49;100.00
61786;BME280;47692;53.714;11.372;2024-03-25T07:20:09;99791.56;;;4.47;100.00
61786;BME280;47692;53.714;11.372;2024-03-25T07:22:36;99793.31;;;4.43;100.00
61786;BME280;47692;53.714;11.372;2024-03-25T07:25:02;99795.13;;;4.38;100.00
61786;BME280;47692;53.714;11.372;2024-03-25T07:27:27;99789.22;;;4.27;100.00
61786;BME280;47692;53.714;11.372;2024-03-25T07:29:52;99801.28;;;4.25;100.00
61786;BME280;47692;53.714;11.372;2024-03-25T07:32:17;99801.91;;;4.44;100.00
61786;BME280;47692;53.714;11.372;2024-03-25T07:34:43;99806.03;;;4.59;100.00
61786;BME280;47692;53.714;11.372;2024-03-25T07:37:09;99810.25;;;4.66;100.00
61786;BME280;47692;53.714;11.372;2024-03-25T07:39:34;99811.16;;;4.63;100.00
61786;BME280;47692;53.714;11.372;2024-03-25T07:41:59;99824.13;;;4.62;100.00
61786;BME280;47692;53.714;11.372;2024-03-25T07:44:24;99824.09;;;4.63;100.00
61786;BME280;47692;53.714;11.372;2024-03-25T07:46:50;99832.72;;;4.62;100.00
61786;BME280;47692;53.714;11.372;2024-03-25T07:49:15;99833.63;;;4.58;100.00
61786;BME280;47692;53.714;11.372;2024-03-25T07:51:40;99826.72;;;4.59;100.00
61786;BME280;47692;53.714;11.372;2024-03-25T07:54:06;99838.75;;;4.63;100.00
61786;BME280;47692;53.714;11.372;2024-03-25T07:56:31;99841.28;;;4.69;100.00
61786;BME280;47692;53.714;11.372;2024-03-25T07:58:57;99842.84;;;4.79;100.00
61786;BME280;47692;53.714;11.372;2024-03-25T08:01:25;99844.53;;;4.82;100.00
61786;BME280;47692;53.714;11.372;2024-03-25T08:03:50;99853.00;;;4.95;100.00
61786;BME280;47692;53.714;11.372;2024-03-25T08:06:15;99850.34;;;5.01;100.00
61786;BME280;47692;53.714;11.372;2024-03-25T08:08:41;99855.31;;;5.13;100.00
61786;BME280;47692;53.714;11.372;2024-03-25T08:11:06;99855.22;;;5.20;100.00
61786;BME280;47692;53.714;11.372;2024-03-25T08:13:32;99862.03;;;5.27;100.00
61786;BME280;47692;53.714;11.372;2024-03-25T08:15:58;99862.00;;;5.30;100.00
61786;BME280;47692;53.714;11.372;2024-03-25T08:18:23;99861.91;;;5.36;100.00
61786;BME280;47692;53.714;11.372;2024-03-25T08:20:48;99857.72;;;5.27;97.89
61786;BME280;47692;53.714;11.372;2024-03-25T08:23:13;99863.94;;;5.14;96.07
61786;BME280;47692;53.714;11.372;2024-03-25T08:25:39;99865.56;;;5.20;95.81
61786;BME280;47692;53.714;11.372;2024-03-25T08:28:04;99868.84;;;5.34;96.69
61786;BME280;47692;53.714;11.372;2024-03-25T08:30:30;99868.56;;;5.53;96.71
61786;BME280;47692;53.714;11.372;2024-03-25T08:32:55;99876.97;;;5.65;95.84
61786;BME280;47692;53.714;11.372;2024-03-25T08:35:21;99883.88;;;5.66;93.82
61786;BME280;47692;53.714;11.372;2024-03-25T08:37:46;99871.72;;;5.70;93.25
61786;BME280;47692;53.714;11.372;2024-03-25T08:40:12;99881.25;;;5.68;92.24
61786;BME280;47692;53.714;11.372;2024-03-25T08:42:37;99883.94;;;5.62;91.08
61786;BME280;47692;53.714;11.372;2024-03-25T08:45:02;99877.06;;;5.61;90.81
61786;BME280;47692;53.714;11.372;2024-03-25T08:47:28;99873.78;;;5.49;89.29
61786;BME280;47692;53.714;11.372;2024-03-25T08:49:53;99874.47;;;5.61;89.63
61786;BME280;47692;53.714;11.372;2024-03-25T08:52:20;99870.94;;;5.65;89.01
61786;BME280;47692;53.714;11.372;2024-03-25T08:54:45;99871.59;;;5.79;89.18
61786;BME280;47692;53.714;11.372;2024-03-25T08:57:10;99872.16;;;5.98;89.85
61786;BME280;47692;53.714;11.372;2024-03-25T08:59:36;99879.84;;;6.03;88.75
61786;BME280;47692;53.714;11.372;2024-03-25T09:02:01;99882.44;;;6.02;87.56
61786;BME280;47692;53.714;11.372;2024-03-25T09:04:26;99872.47;;;5.78;86.59
61786;BME280;47692;53.714;11.372;2024-03-25T09:06:51;99874.31;;;5.70;87.24
61786;BME280;47692;53.714;11.372;2024-03-25T09:09:17;99875.00;;;5.81;88.05
61786;BME280;47692;53.714;11.372;2024-03-25T09:12:01;99879.97;;;5.94;87.94
61786;BME280;47692;53.714;11.372;2024-03-25T09:14:27;99883.41;;;5.96;87.21
61786;BME280;47692;53.714;11.372;2024-03-25T09:16:52;99889.41;;;5.96;87.01
61786;BME280;47692;53.714;11.372;2024-03-25T09:19:17;99890.34;;;5.94;87.43
61786;BME280;47692;53.714;11.372;2024-03-25T09:21:43;99891.28;;;5.90;87.91
61786;BME280;47692;53.714;11.372;2024-03-25T09:24:08;99898.97;;;5.93;88.27
61786;BME280;47692;53.714;11.372;2024-03-25T09:26:33;99903.28;;;5.94;87.76
61786;BME280;47692;53.714;11.372;2024-03-25T09:28:59;99909.31;;;5.96;87.49
61786;BME280;47692;53.714;11.372;2024-03-25T09:31:24;99913.63;;;5.97;86.96
61786;BME280;47692;53.714;11.372;2024-03-25T09:33:49;99911.81;;;6.02;86.86
61786;BME280;47692;53.714;11.372;2024-03-25T09:36:15;99918.41;;;6.20;87.03
61786;BME280;47692;53.714;11.372;2024-03-25T09:38:40;99900.88;;;6.35;86.35
61786;BME280;47692;53.714;11.372;2024-03-25T09:41:08;99906.41;;;6.63;86.20
61786;BME280;47692;53.714;11.372;2024-03-25T09:43:43;99907.09;;;6.73;84.92
61786;BME280;47692;53.714;11.372;2024-03-25T09:46:09;99913.94;;;6.75;84.59
61786;BME280;47692;53.714;11.372;2024-03-25T09:48:36;99907.09;;;6.73;84.71
61786;BME280;47692;53.714;11.372;2024-03-25T09:51:02;99918.25;;;6.76;85.37
61786;BME280;47692;53.714;11.372;2024-03-25T09:53:27;99924.41;;;6.71;85.32
61786;BME280;47692;53.714;11.372;2024-03-25T09:55:53;99930.44;;;6.71;84.62
61786;BME280;47692;53.714;11.372;2024-03-25T09:58:19;99929.53;;;6.75;84.79
61786;BME280;47692;53.714;11.372;2024-03-25T10:00:45;99934.66;;;6.77;84.38
61786;BME280;47692;53.714;11.372;2024-03-25T10:03:11;99937.06;;;6.88;84.32
61786;BME280;47692;53.714;11.372;2024-03-25T10:05:37;99933.38;;;6.98;83.20
61786;BME280;47692;53.714;11.372;2024-03-25T10:08:03;99931.66;;;6.97;81.79
61786;BME280;47692;53.714;11.372;2024-03-25T10:10:28;99933.34;;;7.01;82.25
61786;BME280;47692;53.714;11.372;2024-03-25T10:12:55;99938.53;;;7.01;81.53
61786;BME280;47692;53.714;11.372;2024-03-25T10:15:20;99928.94;;;7.03;80.65
61786;BME280;47692;53.714;11.372;2024-03-25T10:17:49;99931.41;;;7.09;80.72
61786;BME280;47692;53.714;11.372;2024-03-25T10:20:14;99932.75;;;7.29;80.44
61786;BME280;47692;53.714;11.372;2024-03-25T10:22:43;99933.97;;;7.52;81.57
61786;BME280;47692;53.714;11.372;2024-03-25T10:25:29;99938.94;;;7.63;80.86
61786;BME280;47692;53.714;11.372;2024-03-25T10:27:59;99929.47;;;7.60;80.98
61786;BME280;47692;53.714;11.372;2024-03-25T10:30:25;99927.00;;;7.54;80.59
61786;BME280;47692;53.714;11.372;2024-03-25T10:33:02;99927.00;;;7.54;80.64
61786;BME280;47692;53.714;11.372;2024-03-25T10:35:29;99931.63;;;7.39;78.16
61786;BME280;47692;53.714;11.372;2024-03-25T10:38:05;99924.06;;;7.30;78.95
61786;BME280;47692;53.714;11.372;2024-03-25T10:40:34;99931.03;;;7.28;80.37
61786;BME280;47692;53.714;11.372;2024-03-25T10:45:29;99925.97;;;7.22;80.68
61786;BME280;47692;53.714;11.372;2024-03-25T10:48:01;99932.22;;;7.13;80.15
61786;BME280;47692;53.714;11.372;2024-03-25T10:50:29;99935.66;;;7.14;80.57
61786;BME280;47692;53.714;11.372;2024-03-25T10:52:57;99934.84;;;7.11;80.98
61786;BME280;47692;53.714;11.372;2024-03-25T10:55:23;99936.69;;;7.06;80.81
61786;BME280;47692;53.714;11.372;2024-03-25T10:57:50;99937.53;;;7.07;81.29
61786;BME280;47692;53.714;11.372;2024-03-25T11:00:17;99932.88;;;7.23;82.55
61786;BME280;47692;53.714;11.372;2024-03-25T11:02:45;99930.97;;;7.31;83.14
61786;BME280;47692;53.714;11.372;2024-03-25T11:05:11;99936.09;;;7.34;81.04
61786;BME280;47692;53.714;11.372;2024-03-25T11:07:37;99925.38;;;7.50;81.72
61786;BME280;47692;53.714;11.372;2024-03-25T11:10:06;99934.38;;;7.33;80.59
61786;BME280;47692;53.714;11.372;2024-03-25T11:12:35;99935.84;;;7.45;81.26
61786;BME280;47692;53.714;11.372;2024-03-25T11:15:02;99924.25;;;7.60;82.28
61786;BME280;47692;53.714;11.372;2024-03-25T11:17:29;99923.16;;;7.70;81.82
61786;BME280;47692;53.714;11.372;2024-03-25T11:19:54;99924.88;;;7.71;81.79
61786;BME280;47692;53.714;11.372;2024-03-25T11:22:24;99931.97;;;7.63;81.12
61786;BME280;47692;53.714;11.372;2024-03-25T11:24:50;99929.16;;;7.72;81.82
61786;BME280;47692;53.714;11.372;2024-03-25T11:27:21;99926.69;;;7.68;79.87
61786;BME280;47692;53.714;11.372;2024-03-25T11:29:47;99927.50;;;7.70;78.62
61786;BME280;47692;53.714;11.372;2024-03-25T11:32:13;99926.53;;;7.74;78.28
61786;BME280;47692;53.714;11.372;2024-03-25T11:34:50;99934.22;;;7.79;77.69
61786;BME280;47692;53.714;11.372;2024-03-25T11:37:15;99938.44;;;7.83;78.96
61786;BME280;47692;53.714;11.372;2024-03-25T11:39:40;99936.75;;;7.82;79.55
61786;BME280;47692;53.714;11.372;2024-03-25T11:42:08;99936.25;;;7.66;83.00
61786;BME280;47692;53.714;11.372;2024-03-25T11:44:36;99946.69;;;7.25;85.86
61786;BME280;47692;53.714;11.372;2024-03-25T11:47:03;99952.38;;;7.00;87.21
61786;BME280;47692;53.714;11.372;2024-03-25T11:49:28;99945.88;;;6.77;88.66
61786;BME280;47692;53.714;11.372;2024-03-25T11:51:53;99943.69;;;6.57;89.65
61786;BME280;47692;53.714;11.372;2024-03-25T11:54:19;99948.06;;;6.54;91.09
61786;BME280;47692;53.714;11.372;2024-03-25T11:56:44;99945.50;;;6.52;91.81
61786;BME280;47692;53.714;11.372;2024-03-25T11:59:11;99941.34;;;6.43;92.69
61786;BME280;47692;53.714;11.372;2024-03-25T12:01:42;99942.91;;;6.52;93.15
61786;BME280;47692;53.714;11.372;2024-03-25T12:04:17;99939.47;;;6.50;92.70
61786;BME280;47692;53.714;11.372;2024-03-25T12:06:43;99942.72;;;6.63;92.12
61786;BME280;47692;53.714;11.372;2024-03-25T12:09:09;99946.00;;;6.71;91.68
61786;BME280;47692;53.714;11.372;2024-03-25T12:11:53;99945.66;;;6.90;91.12
61786;BME280;47692;53.714;11.372;2024-03-25T12:14:20;99948.84;;;7.04;89.93
61786;BME280;47692;53.714;11.372;2024-03-25T12:16:46;99947.75;;;7.15;89.42
61786;BME280;47692;53.714;11.372;2024-03-25T12:19:13;99943.25;;;7.23;88.86
61786;BME280;47692;53.714;11.372;2024-03-25T12:21:38;99930.53;;;7.10;88.46
61786;BME280;47692;53.714;11.372;2024-03-25T12:24:04;99936.81;;;7.00;88.94
61786;BME280;47692;53.714;11.372;2024-03-25T12:26:30;99943.69;;;7.03;89.72
61786;BME280;47692;53.714;11.372;2024-03-25T12:28:57;99941.72;;;7.14;88.14
61786;BME280;47692;53.714;11.372;2024-03-25T12:31:23;99949.88;;;6.95;87.68
61786;BME280;47692;53.714;11.372;2024-03-25T12:33:49;99948.13;;;6.98;88.46
61786;BME280;47692;53.714;11.372;2024-03-25T12:36:14;99950.75;;;6.94;88.94
61786;BME280;47692;53.714;11.372;2024-03-25T12:38:40;99949.16;;;6.89;89.96
61786;BME280;47692;53.714;11.372;2024-03-25T12:41:12;99953.94;;;6.63;89.78
61786;BME280;47692;53.714;11.372;2024-03-25T12:43:43;99951.91;;;6.33;90.91
61786;BME280;47692;53.714;11.372;2024-03-25T12:46:10;99950.56;;;6.10;91.90
61786;BME280;47692;53.714;11.372;2024-03-25T12:48:36;99957.88;;;5.81;92.89
61786;BME280;47692;53.714;11.372;2024-03-25T12:51:02;99960.84;;;5.58;94.21